createdAt,value
2019-02-19T00:00:25.841Z,6.39
2019-02-19T00:02:56.157Z,6.41
2019-02-19T00:05:26.431Z,6.49
2019-02-19T00:07:56.702Z,6.50
2019-02-19T00:10:26.974Z,6.49
2019-02-19T00:12:57.260Z,6.43
2019-02-19T00:15:27.530Z,6.40
2019-02-19T00:17:57.818Z,6.37
2019-02-19T00:20:28.257Z,6.22
2019-02-19T00:22:58.553Z,6.25
2019-02-19T00:25:28.825Z,6.30
2019-02-19T00:27:59.121Z,6.36
2019-02-19T00:30:29.568Z,6.39
2019-02-19T00:32:59.852Z,6.34
2019-02-19T00:35:30.146Z,6.34
2019-02-19T00:38:00.498Z,6.39
2019-02-19T00:40:30.803Z,6.22
2019-02-19T00:43:01.125Z,6.30
2019-02-19T00:45:31.399Z,6.26
2019-02-19T00:48:01.688Z,6.32
2019-02-19T00:50:32.310Z,6.06
2019-02-19T00:53:02.605Z,6.15
2019-02-19T00:55:34.230Z,6.20
2019-02-19T00:58:04.494Z,6.27
2019-02-19T01:00:34.768Z,6.22
2019-02-19T01:03:05.166Z,6.07
2019-02-19T01:05:35.468Z,6.27
2019-02-19T01:08:05.762Z,6.19
2019-02-19T01:10:36.058Z,6.19
2019-02-19T01:13:06.392Z,6.21
2019-02-19T01:15:36.685Z,6.25
2019-02-19T01:18:07.345Z,6.27
2019-02-19T01:20:37.637Z,6.06
2019-02-19T01:23:07.898Z,6.06
2019-02-19T01:25:38.212Z,6.13
2019-02-19T01:28:08.497Z,6.17
2019-02-19T01:30:38.798Z,6.20
2019-02-19T01:33:09.107Z,6.09
2019-02-19T01:35:39.407Z,6.03
2019-02-19T01:38:09.687Z,6.13
2019-02-19T01:40:39.975Z,6.10
2019-02-19T01:43:10.281Z,6.12
2019-02-19T01:45:40.574Z,6.13
2019-02-19T01:48:10.926Z,6.01
2019-02-19T01:50:41.196Z,6.11
2019-02-19T01:53:11.522Z,5.99
2019-02-19T01:55:41.825Z,6.11
2019-02-19T01:58:12.226Z,6.13
2019-02-19T02:00:42.518Z,6.03
2019-02-19T02:03:12.816Z,5.95
2019-02-19T02:05:43.104Z,6.09
2019-02-19T02:08:13.836Z,6.04
2019-02-19T02:10:44.182Z,6.11
2019-02-19T02:13:14.524Z,6.01
2019-02-19T02:15:44.800Z,5.98
2019-02-19T02:18:15.095Z,5.86
2019-02-19T02:20:45.427Z,5.92
2019-02-19T02:23:15.707Z,5.94
2019-02-19T02:25:45.974Z,6.09
2019-02-19T02:28:16.341Z,6.12
2019-02-19T02:30:46.613Z,6.16
2019-02-19T02:33:16.910Z,6.08
2019-02-19T02:35:47.200Z,6.06
2019-02-19T02:38:17.545Z,6.03
2019-02-19T02:40:47.808Z,6.04
2019-02-19T02:43:18.108Z,6.06
2019-02-19T02:45:53.381Z,6.03
2019-02-19T02:48:23.305Z,5.82
2019-02-19T02:50:53.595Z,5.53
2019-02-19T02:53:23.887Z,5.76
2019-02-19T02:55:54.184Z,5.70
2019-02-19T02:58:24.518Z,5.64
2019-02-19T03:00:54.809Z,5.66
2019-02-19T03:03:25.103Z,5.86
2019-02-19T03:06:01.427Z,6.00
2019-02-19T03:08:32.691Z,5.90
2019-02-19T03:11:02.974Z,5.94
2019-02-19T03:13:33.291Z,5.89
2019-02-19T03:16:03.584Z,5.85
2019-02-19T03:18:34.623Z,5.84
2019-02-19T03:21:04.902Z,5.84
2019-02-19T03:23:35.224Z,5.94
2019-02-19T03:26:05.493Z,6.02
2019-02-19T03:28:35.795Z,5.97
2019-02-19T03:31:06.085Z,6.05
2019-02-19T03:33:37.339Z,6.13
2019-02-19T03:36:07.622Z,5.79
2019-02-19T03:38:37.909Z,5.57
2019-02-19T03:41:08.311Z,5.80
2019-02-19T03:43:38.583Z,5.82
2019-02-19T03:46:12.113Z,5.77
2019-02-19T03:48:40.843Z,5.73
2019-02-19T03:51:12.256Z,5.72
2019-02-19T03:53:42.544Z,5.87
2019-02-19T03:56:12.832Z,5.96
2019-02-19T03:58:43.130Z,5.92
2019-02-19T04:01:13.401Z,6.00
2019-02-19T04:03:43.754Z,5.94
2019-02-19T04:06:14.036Z,6.01
2019-02-19T04:08:44.361Z,5.98
2019-02-19T04:11:14.647Z,6.09
2019-02-19T04:13:44.896Z,6.06
2019-02-19T04:16:21.338Z,6.01
2019-02-19T04:18:48.242Z,6.08
2019-02-19T04:21:18.540Z,5.87
2019-02-19T04:23:48.841Z,5.86
2019-02-19T04:26:19.130Z,5.72
2019-02-19T04:28:49.401Z,5.78
2019-02-19T04:31:19.674Z,5.98
2019-02-19T04:33:49.937Z,6.03
2019-02-19T04:36:20.208Z,6.12
2019-02-19T04:38:50.509Z,6.14
2019-02-19T04:41:20.782Z,6.28
2019-02-19T04:43:51.079Z,6.22
2019-02-19T04:46:30.833Z,6.22
2019-02-19T04:48:53.340Z,6.25
2019-02-19T04:51:23.635Z,6.38
2019-02-19T04:53:53.947Z,6.37
2019-02-19T04:56:24.492Z,6.17
2019-02-19T04:58:54.774Z,6.24
2019-02-19T05:01:25.071Z,6.30
2019-02-19T05:03:56.902Z,6.42
2019-02-19T05:06:27.202Z,6.44
2019-02-19T05:08:57.929Z,6.37
2019-02-19T05:11:28.688Z,6.44
2019-02-19T05:13:59.012Z,6.39
2019-02-19T05:16:29.285Z,6.35
2019-02-19T05:18:59.628Z,6.54
2019-02-19T05:21:29.960Z,6.54
2019-02-19T05:24:00.317Z,6.49
2019-02-19T05:26:30.632Z,6.65
2019-02-19T05:29:01.034Z,6.59
2019-02-19T05:31:31.313Z,6.51
2019-02-19T05:34:02.731Z,6.34
2019-02-19T05:36:33.082Z,6.46
2019-02-19T05:39:04.860Z,6.45
2019-02-19T05:41:36.066Z,6.60
2019-02-19T05:44:06.626Z,6.33
2019-02-19T05:46:36.962Z,6.29
2019-02-19T05:49:07.294Z,6.38
2019-02-19T05:51:37.559Z,6.32
2019-02-19T05:54:07.859Z,6.43
2019-02-19T05:56:38.144Z,6.52
2019-02-19T05:59:08.492Z,6.64
2019-02-19T06:01:39.041Z,6.66
2019-02-19T06:04:09.332Z,6.72
2019-02-19T06:06:39.711Z,6.68
2019-02-19T06:09:10.023Z,6.70
2019-02-19T06:11:40.445Z,6.69
2019-02-19T06:14:10.736Z,6.78
2019-02-19T06:16:41.056Z,6.94
2019-02-19T06:19:11.958Z,6.86
2019-02-19T06:21:42.246Z,7.04
2019-02-19T06:24:12.569Z,7.54
2019-02-19T06:26:43.257Z,7.68
2019-02-19T06:29:13.547Z,8.08
2019-02-19T06:31:43.850Z,8.45
2019-02-19T06:34:14.398Z,8.58
2019-02-19T06:36:45.006Z,8.85
2019-02-19T06:39:15.466Z,9.11
2019-02-19T06:41:46.114Z,8.31
2019-02-19T06:44:16.364Z,7.17
2019-02-19T06:46:47.656Z,6.44
2019-02-19T06:49:17.975Z,6.05
2019-02-19T06:51:49.418Z,5.71
2019-02-19T06:54:19.719Z,5.66
2019-02-19T06:56:50.013Z,5.37
2019-02-19T06:59:20.289Z,5.48
2019-02-19T07:02:10.808Z,5.35
2019-02-19T07:04:42.879Z,6.63
2019-02-19T07:07:13.199Z,6.95
2019-02-19T07:09:43.490Z,7.25
2019-02-19T07:12:13.800Z,6.86
2019-02-19T07:14:44.105Z,6.61
2019-02-19T07:17:15.935Z,6.39
2019-02-19T07:19:46.362Z,6.46
2019-02-19T07:22:16.664Z,6.52
2019-02-19T07:24:46.947Z,6.74
2019-02-19T07:27:17.245Z,6.85
2019-02-19T07:29:47.543Z,7.08
2019-02-19T07:32:17.825Z,7.02
2019-02-19T07:34:48.120Z,6.86
2019-02-19T07:37:18.391Z,6.55
2019-02-19T07:39:48.743Z,6.90
2019-02-19T07:42:19.041Z,6.61
2019-02-19T07:44:49.310Z,6.88
2019-02-19T07:47:24.687Z,7.25
2019-02-19T07:49:51.610Z,7.24
2019-02-19T07:52:21.896Z,7.24
2019-02-19T07:54:52.171Z,7.10
2019-02-19T07:57:22.630Z,7.12
2019-02-19T07:59:52.944Z,7.18
2019-02-19T08:02:23.471Z,7.14
2019-02-19T08:04:53.927Z,7.11
2019-02-19T08:07:24.177Z,7.27
2019-02-19T08:09:54.504Z,7.27
2019-02-19T08:12:26.234Z,7.49
2019-02-19T08:14:57.653Z,7.43
2019-02-19T08:17:33.248Z,7.48
2019-02-19T08:20:01.622Z,7.65
2019-02-19T08:22:32.173Z,7.76
2019-02-19T08:25:02.473Z,7.91
2019-02-19T08:27:32.760Z,8.16
2019-02-19T08:30:03.079Z,8.13
2019-02-19T08:32:33.454Z,8.09
2019-02-19T08:35:03.765Z,8.33
2019-02-19T08:37:34.079Z,8.52
2019-02-19T08:40:05.017Z,8.51
2019-02-19T08:42:35.315Z,8.46
2019-02-19T08:45:07.533Z,8.74
2019-02-19T08:47:42.591Z,8.70
2019-02-19T08:50:10.883Z,8.82
2019-02-19T08:52:41.130Z,8.93
2019-02-19T08:55:11.419Z,8.98
2019-02-19T08:57:41.747Z,9.05
2019-02-19T09:00:12.152Z,9.26
2019-02-19T09:02:44.062Z,9.41
2019-02-19T09:05:14.378Z,9.43
2019-02-19T09:07:44.650Z,9.49
2019-02-19T09:10:15.316Z,9.56
2019-02-19T09:12:46.677Z,9.72
2019-02-19T09:15:16.953Z,9.82
2019-02-19T09:17:51.906Z,9.97
2019-02-19T09:20:20.407Z,9.99
2019-02-19T09:22:50.700Z,10.15
2019-02-19T09:25:21.034Z,10.25
2019-02-19T09:27:51.344Z,10.12
2019-02-19T09:30:21.651Z,10.13
2019-02-19T09:32:51.954Z,10.26
2019-02-19T09:35:23.748Z,10.40
2019-02-19T09:37:54.113Z,10.31
2019-02-19T09:40:24.393Z,10.38
2019-02-19T09:42:54.683Z,10.45
2019-02-19T09:45:24.990Z,10.58
2019-02-19T09:48:01.145Z,10.93
2019-02-19T09:50:27.259Z,10.96
2019-02-19T09:53:00.023Z,11.17
2019-02-19T09:55:29.627Z,11.14
2019-02-19T09:58:00.174Z,11.08
2019-02-19T10:00:30.519Z,11.09
2019-02-19T10:03:00.805Z,10.86
2019-02-19T10:05:31.200Z,10.78
2019-02-19T10:08:01.495Z,10.92
2019-02-19T10:10:31.798Z,10.78
2019-02-19T10:13:02.133Z,10.70
2019-02-19T10:15:32.464Z,10.88
2019-02-19T10:18:09.885Z,10.94
2019-02-19T10:20:34.777Z,11.29
2019-02-19T10:23:05.077Z,11.47
2019-02-19T10:25:35.388Z,11.55
2019-02-19T10:28:05.687Z,11.84
2019-02-19T10:30:35.978Z,11.81
2019-02-19T10:33:06.283Z,12.00
2019-02-19T10:35:36.577Z,12.25
2019-02-19T10:38:08.489Z,12.35
2019-02-19T10:40:38.807Z,12.37
2019-02-19T10:43:09.081Z,12.44
2019-02-19T10:45:39.390Z,12.43
2019-02-19T10:48:09.683Z,12.44
2019-02-19T10:50:40.154Z,12.28
2019-02-19T10:53:10.519Z,12.33
2019-02-19T10:55:40.807Z,12.37
2019-02-19T10:58:11.588Z,12.32
2019-02-19T11:00:42.346Z,12.19
2019-02-19T11:03:12.624Z,12.29
2019-02-19T11:05:42.947Z,12.25
2019-02-19T11:08:13.221Z,12.49
2019-02-19T11:10:43.540Z,12.85
2019-02-19T11:13:13.893Z,13.02
2019-02-19T11:15:45.280Z,13.03
2019-02-19T11:18:16.650Z,13.13
2019-02-19T11:20:46.974Z,13.07
2019-02-19T11:23:17.291Z,13.03
2019-02-19T11:25:49.146Z,13.04
2019-02-19T11:28:19.447Z,12.98
2019-02-19T11:30:49.728Z,12.87
2019-02-19T11:33:20.025Z,12.60
2019-02-19T11:35:50.326Z,12.72
2019-02-19T11:38:20.619Z,12.75
2019-02-19T11:40:51.000Z,12.67
2019-02-19T11:43:22.836Z,12.54
2019-02-19T11:45:53.138Z,12.48
2019-02-19T11:48:23.440Z,12.39
2019-02-19T11:50:54.000Z,12.32
2019-02-19T11:53:25.289Z,12.25
2019-02-19T11:55:55.596Z,12.27
2019-02-19T11:58:25.974Z,12.35
2019-02-19T12:00:56.297Z,12.40
2019-02-19T12:03:26.598Z,12.32
2019-02-19T12:05:58.564Z,12.46
2019-02-19T12:08:28.842Z,12.68
2019-02-19T12:10:59.157Z,12.79
2019-02-19T12:13:29.450Z,12.74
2019-02-19T12:15:59.766Z,12.82
2019-02-19T12:18:31.158Z,12.87
2019-02-19T12:21:01.455Z,12.78
2019-02-19T12:23:31.796Z,12.82
2019-02-19T12:26:02.102Z,12.75
2019-02-19T12:28:32.551Z,12.67
2019-02-19T12:31:02.876Z,12.67
2019-02-19T12:33:33.172Z,12.68
2019-02-19T12:36:03.511Z,12.72
2019-02-19T12:38:33.806Z,12.81
2019-02-19T12:41:04.138Z,12.76
2019-02-19T12:43:34.420Z,12.69
2019-02-19T12:46:04.701Z,12.67
2019-02-19T12:48:34.995Z,12.78
2019-02-19T12:51:05.299Z,12.68
2019-02-19T12:53:35.598Z,12.52
2019-02-19T12:56:05.865Z,12.50
2019-02-19T12:58:36.164Z,12.31
2019-02-19T13:01:06.461Z,12.28
2019-02-19T13:03:36.762Z,12.26
2019-02-19T13:06:07.076Z,12.25
2019-02-19T13:08:40.169Z,12.32
2019-02-19T13:11:10.501Z,12.32
2019-02-19T13:13:40.800Z,12.20
2019-02-19T13:16:11.100Z,12.21
2019-02-19T13:18:41.395Z,12.18
2019-02-19T13:21:11.711Z,12.35
2019-02-19T13:23:42.024Z,12.33
2019-02-19T13:26:12.340Z,12.14
2019-02-19T13:28:42.634Z,12.08
2019-02-19T13:31:12.993Z,11.84
2019-02-19T13:33:43.310Z,11.72
2019-02-19T13:36:13.795Z,11.66
2019-02-19T13:38:45.483Z,11.59
2019-02-19T13:41:16.620Z,11.51
2019-02-19T13:43:46.917Z,11.43
2019-02-19T13:46:17.398Z,11.51
2019-02-19T13:48:47.697Z,11.59
2019-02-19T13:51:18.948Z,11.47
2019-02-19T13:54:07.089Z,11.50
2019-02-19T13:56:37.865Z,11.39
2019-02-19T13:59:08.829Z,11.38
2019-02-19T14:01:39.183Z,11.24
2019-02-19T14:04:09.501Z,11.31
2019-02-19T14:06:39.793Z,11.28
2019-02-19T14:09:10.105Z,11.14
2019-02-19T14:11:40.442Z,11.03
2019-02-19T14:14:15.361Z,11.00
2019-02-19T14:16:47.329Z,10.98
2019-02-19T14:19:21.367Z,10.88
2019-02-19T14:21:53.563Z,10.85
2019-02-19T14:24:26.496Z,10.72
2019-02-19T14:27:10.914Z,10.66
2019-02-19T14:29:49.847Z,10.65
2019-02-19T14:32:21.782Z,10.61
2019-02-19T14:34:56.437Z,10.57
2019-02-19T14:37:30.088Z,10.45
2019-02-19T14:40:10.504Z,10.33
2019-02-19T14:42:50.528Z,10.17
2019-02-19T14:45:29.804Z,10.11
2019-02-19T14:48:19.179Z,10.16
2019-02-19T14:51:01.586Z,10.16
2019-02-19T14:53:39.488Z,10.12
2019-02-19T14:56:14.126Z,10.20
2019-02-19T14:58:46.120Z,10.17
2019-02-19T15:01:18.055Z,10.27
2019-02-19T15:03:59.280Z,10.33
2019-02-19T15:06:37.244Z,10.22
2019-02-19T15:09:21.151Z,10.33
2019-02-19T15:11:53.104Z,10.35
2019-02-19T15:14:43.421Z,10.43
2019-02-19T15:19:58.880Z,10.39
2019-02-19T15:22:30.966Z,10.31
2019-02-19T15:25:11.794Z,10.26
2019-02-19T15:27:47.491Z,10.05
2019-02-19T15:30:22.435Z,10.04
2019-02-19T15:32:59.983Z,9.99
2019-02-19T15:35:50.136Z,10.04
2019-02-19T15:38:23.025Z,10.11
2019-02-19T15:40:55.942Z,10.13
2019-02-19T15:43:28.646Z,10.10
2019-02-19T15:46:00.746Z,10.06
2019-02-19T15:48:33.089Z,9.97
2019-02-19T15:51:06.991Z,10.09
2019-02-19T15:53:39.193Z,9.97
2019-02-19T15:56:27.544Z,9.93
2019-02-19T15:59:11.867Z,9.88
2019-02-19T16:01:43.776Z,9.85
2019-02-19T16:04:32.577Z,9.91
2019-02-19T16:07:08.031Z,9.83
2019-02-19T16:09:49.041Z,9.84
2019-02-19T16:12:24.686Z,9.55
2019-02-19T16:14:59.656Z,9.60
2019-02-19T16:17:31.942Z,9.43
2019-02-19T16:20:15.746Z,9.50
2019-02-19T16:22:47.869Z,9.48
2019-02-19T16:25:38.171Z,9.45
2019-02-19T16:28:10.196Z,9.46
2019-02-19T16:30:51.023Z,9.52
2019-02-19T16:33:31.938Z,9.31
2019-02-19T16:36:06.514Z,9.34
2019-02-19T16:38:41.600Z,9.24
2019-02-19T16:41:19.816Z,9.22
2019-02-19T16:43:57.916Z,9.23
2019-02-19T16:46:31.670Z,9.22
2019-02-19T16:49:03.666Z,9.21
2019-02-19T16:51:40.744Z,9.15
2019-02-19T16:54:28.867Z,9.12
2019-02-19T16:57:06.382Z,9.14
2019-02-19T16:59:51.375Z,9.15
2019-02-19T17:02:26.147Z,9.09
2019-02-19T17:05:13.316Z,9.06
2019-02-19T17:07:45.279Z,9.17
2019-02-19T17:10:17.507Z,9.15
2019-02-19T17:13:04.560Z,9.10
2019-02-19T17:15:45.462Z,8.98
2019-02-19T17:18:26.395Z,8.91
2019-02-19T17:21:07.251Z,8.92
2019-02-19T17:23:39.223Z,9.00
2019-02-19T17:26:27.597Z,8.92
2019-02-19T17:29:02.674Z,8.83
2019-02-19T17:31:46.923Z,8.82
2019-02-19T17:34:36.694Z,8.79
2019-02-19T17:37:25.626Z,8.93
2019-02-19T17:40:06.382Z,8.88
2019-02-19T17:42:47.342Z,8.80
2019-02-19T17:45:19.549Z,8.76
2019-02-19T17:48:03.777Z,8.69
2019-02-19T17:50:38.683Z,8.75
2019-02-19T17:53:11.034Z,8.67
2019-02-19T17:55:43.041Z,8.68
2019-02-19T17:58:15.261Z,8.61
2019-02-19T18:00:53.242Z,8.52
2019-02-19T18:03:25.155Z,8.50
2019-02-19T18:05:57.242Z,8.39
2019-02-19T18:08:41.554Z,8.47
2019-02-19T18:11:18.022Z,8.49
2019-02-19T18:13:54.159Z,8.63
2019-02-19T18:16:41.520Z,8.60
2019-02-19T18:19:11.816Z,8.57
2019-02-19T18:21:42.119Z,8.67
2019-02-19T18:24:12.426Z,8.55
2019-02-19T18:26:44.813Z,8.49
2019-02-19T18:29:17.649Z,8.52
2019-02-19T18:31:47.945Z,8.49
2019-02-19T18:34:18.300Z,8.45
2019-02-19T18:36:48.594Z,8.44
2019-02-19T18:39:20.968Z,8.64
2019-02-19T18:41:51.287Z,8.83
2019-02-19T18:44:21.576Z,8.76
2019-02-19T18:46:51.960Z,8.67
2019-02-19T18:49:22.244Z,8.60
2019-02-19T18:51:52.558Z,8.50
2019-02-19T18:54:22.867Z,8.42
2019-02-19T18:56:53.221Z,8.48
2019-02-19T18:59:23.999Z,8.49
2019-02-19T19:01:54.276Z,8.47
2019-02-19T19:04:24.566Z,8.50
2019-02-19T19:06:55.207Z,8.51
2019-02-19T19:09:25.509Z,8.54
2019-02-19T19:11:55.946Z,8.54
2019-02-19T19:14:26.404Z,8.59
2019-02-19T19:16:56.897Z,8.62
2019-02-19T19:19:27.544Z,8.58
2019-02-19T19:21:58.458Z,8.70
2019-02-19T19:24:28.769Z,8.81
2019-02-19T19:26:59.495Z,8.69
2019-02-19T19:29:30.034Z,8.88
2019-02-19T19:32:00.359Z,8.74
2019-02-19T19:34:30.672Z,8.57
2019-02-19T19:37:02.359Z,8.53
2019-02-19T19:39:32.720Z,8.57
2019-02-19T19:42:03.012Z,8.65
2019-02-19T19:44:34.845Z,8.55
2019-02-19T19:47:05.417Z,8.74
2019-02-19T19:49:35.995Z,8.61
2019-02-19T19:52:06.485Z,8.68
2019-02-19T19:54:37.162Z,8.79
2019-02-19T19:57:08.167Z,8.97
2019-02-19T19:59:38.922Z,8.93
2019-02-19T20:02:09.629Z,8.97
2019-02-19T20:04:41.018Z,9.22
2019-02-19T20:07:12.919Z,9.15
2019-02-19T20:09:44.193Z,9.24
2019-02-19T20:12:15.529Z,9.00
2019-02-19T20:14:47.095Z,8.92
2019-02-19T20:17:19.946Z,8.87
2019-02-19T20:19:51.157Z,8.77
2019-02-19T20:22:21.666Z,8.83
2019-02-19T20:24:53.062Z,8.74
2019-02-19T20:27:24.681Z,8.53
2019-02-19T20:29:55.944Z,8.43
2019-02-19T20:32:27.868Z,8.38
2019-02-19T20:34:59.025Z,8.56
2019-02-19T20:37:29.715Z,8.58
2019-02-19T20:42:26.544Z,8.45
2019-02-19T20:44:57.057Z,8.27
2019-02-19T20:47:27.438Z,8.35
2019-02-19T20:49:59.045Z,8.30
2019-02-19T20:52:29.767Z,8.20
2019-02-19T20:55:04.255Z,8.03
2019-02-19T20:57:34.835Z,8.03
2019-02-19T21:00:13.025Z,7.93
2019-02-19T21:02:46.560Z,7.85
2019-02-19T21:05:17.166Z,7.70
2019-02-19T21:07:47.791Z,7.70
2019-02-19T21:10:19.559Z,7.62
2019-02-19T21:12:49.869Z,7.70
2019-02-19T21:15:21.098Z,7.74
2019-02-19T21:17:52.031Z,7.72
2019-02-19T21:20:22.403Z,7.73
2019-02-19T21:22:52.793Z,7.81
2019-02-19T21:25:30.835Z,7.79
2019-02-19T21:27:55.178Z,7.80
2019-02-19T21:30:25.686Z,7.79
2019-02-19T21:32:55.961Z,7.63
2019-02-19T21:35:26.226Z,7.63
2019-02-19T21:37:57.175Z,7.57
2019-02-19T21:40:27.541Z,7.52
2019-02-19T21:42:57.811Z,7.33
2019-02-19T21:45:29.421Z,7.36
2019-02-19T21:48:00.193Z,7.35
2019-02-19T21:50:30.729Z,7.57
2019-02-19T21:53:01.279Z,7.33
2019-02-19T21:55:31.928Z,7.43
2019-02-19T21:58:02.362Z,7.34
2019-02-19T22:00:33.098Z,7.31
2019-02-19T22:03:03.267Z,7.29
2019-02-19T22:05:33.630Z,7.19
2019-02-19T22:08:04.596Z,7.29
2019-02-19T22:10:35.040Z,7.16
2019-02-19T22:13:05.396Z,7.23
2019-02-19T22:15:35.713Z,7.33
2019-02-19T22:18:06.025Z,7.20
2019-02-19T22:20:47.191Z,7.21
2019-02-19T22:23:17.874Z,7.19
2019-02-19T22:25:49.199Z,7.40
2019-02-19T22:28:19.445Z,7.44
2019-02-19T22:30:52.839Z,7.55
2019-02-19T22:33:24.611Z,7.66
2019-02-19T22:35:54.923Z,7.70
2019-02-19T22:38:25.194Z,7.75
2019-02-19T22:40:55.622Z,7.68
2019-02-19T22:43:26.795Z,7.70
2019-02-19T22:45:57.089Z,7.61
2019-02-19T22:48:27.377Z,7.61
2019-02-19T22:50:57.892Z,7.79
2019-02-19T22:53:38.943Z,7.79
2019-02-19T22:56:22.831Z,7.88
2019-02-19T22:58:53.110Z,7.82
2019-02-19T23:01:26.120Z,8.01
2019-02-19T23:03:56.604Z,8.01
2019-02-19T23:06:26.920Z,8.02
2019-02-19T23:08:57.263Z,7.99
2019-02-19T23:11:27.666Z,8.11
2019-02-19T23:13:57.952Z,8.19
2019-02-19T23:16:29.938Z,8.18
2019-02-19T23:19:00.230Z,8.26
2019-02-19T23:21:30.619Z,8.31
2019-02-19T23:24:00.911Z,8.45
2019-02-19T23:26:32.409Z,8.40
2019-02-19T23:29:02.757Z,8.58
2019-02-19T23:31:33.032Z,8.35
2019-02-19T23:34:03.311Z,8.29
2019-02-19T23:36:41.165Z,8.09
2019-02-19T23:39:11.454Z,7.98
2019-02-19T23:41:41.859Z,7.99
2019-02-19T23:44:12.284Z,8.06
2019-02-19T23:46:43.987Z,7.95
2019-02-19T23:49:15.436Z,8.04
2019-02-19T23:51:45.737Z,7.99
2019-02-19T23:54:16.012Z,8.02
2019-02-19T23:56:46.383Z,7.88
2019-02-19T23:59:16.681Z,7.86
